createdAt,value
2022-12-22T00:01:42.315Z,96.72
2022-12-22T00:04:31.872Z,96.06
2022-12-22T00:07:18.642Z,96.08
2022-12-22T00:10:04.203Z,96.68
2022-12-22T00:12:49.742Z,96.42
2022-12-22T00:15:36.756Z,96.45
2022-12-22T00:18:23.707Z,96.69
2022-12-22T00:21:09.013Z,96.10
2022-12-22T00:23:55.620Z,95.91
2022-12-22T00:26:40.992Z,96.24
2022-12-22T00:29:34.305Z,96.07
2022-12-22T00:32:21.236Z,96.05
2022-12-22T00:35:07.159Z,96.01
2022-12-22T00:37:56.098Z,95.79
2022-12-22T00:40:46.925Z,95.68
2022-12-22T00:43:33.217Z,95.69
2022-12-22T00:46:22.310Z,95.91
2022-12-22T00:49:09.199Z,96.14
2022-12-22T00:51:54.983Z,95.95
2022-12-22T00:54:42.132Z,95.64
2022-12-22T00:57:37.708Z,96.17
2022-12-22T01:00:28.648Z,95.93
2022-12-22T01:03:14.585Z,95.80
2022-12-22T01:06:00.406Z,95.64
2022-12-22T01:08:45.856Z,95.61
2022-12-22T01:11:31.305Z,95.40
2022-12-22T01:14:18.240Z,95.91
2022-12-22T01:17:03.740Z,95.54
2022-12-22T01:19:49.006Z,95.73
2022-12-22T01:22:39.848Z,95.97
2022-12-22T01:25:34.302Z,95.60
2022-12-22T01:28:20.250Z,96.00
2022-12-22T01:31:07.672Z,95.41
2022-12-22T01:33:53.520Z,95.28
2022-12-22T01:36:38.936Z,95.60
2022-12-22T01:39:24.324Z,95.44
2022-12-22T01:42:09.735Z,96.09
2022-12-22T01:44:55.150Z,95.92
2022-12-22T01:47:53.832Z,95.54
2022-12-22T01:50:47.368Z,95.87
2022-12-22T01:53:39.680Z,95.59
2022-12-22T01:56:26.534Z,95.30
2022-12-22T01:59:18.600Z,95.69
2022-12-22T02:02:04.604Z,95.38
2022-12-22T02:04:58.178Z,95.50
2022-12-22T02:08:04.787Z,95.04
2022-12-22T02:11:23.927Z,95.14
2022-12-22T02:14:30.762Z,95.58
2022-12-22T02:17:28.419Z,95.57
2022-12-22T02:20:50.301Z,95.16
2022-12-22T02:23:58.042Z,95.12
2022-12-22T02:26:50.703Z,95.28
2022-12-22T02:29:45.275Z,95.26
2022-12-22T02:32:35.236Z,95.87
2022-12-22T02:35:20.528Z,96.00
2022-12-22T02:38:16.520Z,95.15
2022-12-22T02:41:19.530Z,95.64
2022-12-22T02:44:29.895Z,94.76
2022-12-22T02:47:24.872Z,94.77
2022-12-22T02:50:16.743Z,95.43
2022-12-22T02:53:05.169Z,95.28
2022-12-22T02:55:50.996Z,94.93
2022-12-22T02:58:37.785Z,95.45
2022-12-22T03:01:26.159Z,94.97
2022-12-22T03:04:11.674Z,95.02
2022-12-22T03:06:57.045Z,95.47
2022-12-22T03:09:42.330Z,94.88
2022-12-22T03:12:27.729Z,94.93
2022-12-22T03:15:13.504Z,94.65
2022-12-22T03:18:00.350Z,94.94
2022-12-22T03:20:45.899Z,94.53
2022-12-22T03:23:31.252Z,94.96
2022-12-22T03:25:59.223Z,94.27
2022-12-22T03:28:30.123Z,94.51
2022-12-22T03:31:01.233Z,94.89
2022-12-22T03:33:31.219Z,94.26
2022-12-22T03:36:00.878Z,94.58
2022-12-22T03:38:29.034Z,94.35
2022-12-22T03:40:57.754Z,94.73
2022-12-22T03:43:43.898Z,94.69
2022-12-22T03:46:31.774Z,94.21
2022-12-22T03:49:12.714Z,94.88
2022-12-22T03:51:47.465Z,94.17
2022-12-22T03:54:19.065Z,94.77
2022-12-22T03:56:48.091Z,94.30
2022-12-22T03:59:17.193Z,94.40
2022-12-22T04:01:49.116Z,94.74
2022-12-22T04:04:21.934Z,94.28
2022-12-22T04:06:50.442Z,94.92
2022-12-22T04:09:18.531Z,95.33
2022-12-22T04:12:03.894Z,95.13
2022-12-22T04:14:34.754Z,94.95
2022-12-22T04:17:03.250Z,94.92
2022-12-22T04:19:33.231Z,94.86
2022-12-22T04:22:01.990Z,94.96
2022-12-22T04:24:30.008Z,94.95
2022-12-22T04:26:57.969Z,94.67
2022-12-22T04:29:26.030Z,95.29
2022-12-22T04:31:54.167Z,94.84
2022-12-22T04:34:22.259Z,95.12
2022-12-22T04:36:51.707Z,95.54
2022-12-22T04:39:19.718Z,94.96
2022-12-22T04:41:47.739Z,94.84
2022-12-22T04:44:15.773Z,94.90
2022-12-22T04:46:43.989Z,94.87
2022-12-22T04:49:12.053Z,94.85
2022-12-22T04:51:40.134Z,95.00
2022-12-22T04:54:09.440Z,95.16
2022-12-22T04:56:37.434Z,95.16
2022-12-22T04:59:05.414Z,95.38
2022-12-22T05:01:33.662Z,95.38
2022-12-22T05:04:01.645Z,95.25
2022-12-22T05:06:29.708Z,94.72
2022-12-22T05:08:58.068Z,95.30
2022-12-22T05:11:27.501Z,94.68
2022-12-22T05:13:55.605Z,95.14
2022-12-22T05:16:23.689Z,95.42
2022-12-22T05:18:51.771Z,95.01
2022-12-22T05:21:23.377Z,95.16
2022-12-22T05:23:52.137Z,95.46
2022-12-22T05:26:20.861Z,95.34
2022-12-22T05:28:50.226Z,95.19
2022-12-22T05:31:22.658Z,94.86
2022-12-22T05:33:51.726Z,95.28
2022-12-22T05:36:20.177Z,94.76
2022-12-22T05:38:48.288Z,94.23
2022-12-22T05:41:16.389Z,94.41
2022-12-22T05:43:46.088Z,94.83
2022-12-22T05:46:15.376Z,95.35
2022-12-22T05:48:43.396Z,94.98
2022-12-22T05:51:12.151Z,94.72
2022-12-22T05:53:40.490Z,94.90
2022-12-22T05:56:09.819Z,94.70
2022-12-22T05:58:40.115Z,95.18
2022-12-22T06:01:08.807Z,94.85
2022-12-22T06:03:38.420Z,94.71
2022-12-22T06:06:06.947Z,94.86
2022-12-22T06:08:35.135Z,94.94
2022-12-22T06:11:03.162Z,94.56
2022-12-22T06:13:31.148Z,94.93
2022-12-22T06:15:59.259Z,94.84
2022-12-22T06:18:28.262Z,95.25
2022-12-22T06:20:57.838Z,95.33
2022-12-22T06:23:25.788Z,95.36
2022-12-22T06:25:59.162Z,95.03
2022-12-22T06:28:28.162Z,94.53
2022-12-22T06:30:56.620Z,94.69
2022-12-22T06:33:25.065Z,94.32
2022-12-22T06:35:58.521Z,94.66
2022-12-22T06:38:29.473Z,94.59
2022-12-22T06:40:57.818Z,95.19
2022-12-22T06:43:25.806Z,95.18
2022-12-22T06:45:54.754Z,94.99
2022-12-22T06:48:22.862Z,94.89
2022-12-22T06:50:51.164Z,95.16
2022-12-22T06:53:19.184Z,95.33
2022-12-22T06:55:48.853Z,94.71
2022-12-22T06:58:16.657Z,94.80
2022-12-22T07:00:48.625Z,95.02
2022-12-22T07:03:17.485Z,94.75
2022-12-22T07:05:45.743Z,94.59
2022-12-22T07:08:13.739Z,94.59
2022-12-22T07:11:00.201Z,94.78
2022-12-22T07:13:33.962Z,94.07
2022-12-22T07:16:03.247Z,94.88
2022-12-22T07:18:33.269Z,94.49
2022-12-22T07:21:02.963Z,94.73
2022-12-22T07:23:31.667Z,94.45
2022-12-22T07:26:00.315Z,94.62
2022-12-22T07:28:29.855Z,94.76
2022-12-22T07:30:57.914Z,94.84
2022-12-22T07:33:25.942Z,94.92
2022-12-22T07:36:04.644Z,94.84
2022-12-22T07:38:38.628Z,95.05
2022-12-22T07:41:29.032Z,94.61
2022-12-22T07:44:00.604Z,94.37
2022-12-22T07:46:32.432Z,94.31
2022-12-22T07:49:18.141Z,94.61
2022-12-22T07:51:46.448Z,94.39
2022-12-22T07:54:17.208Z,94.25
2022-12-22T07:56:47.627Z,94.52
2022-12-22T07:59:18.328Z,94.92
2022-12-22T08:01:48.243Z,94.56
2022-12-22T08:04:17.001Z,94.87
2022-12-22T08:06:45.899Z,94.81
2022-12-22T08:09:17.703Z,94.86
2022-12-22T08:11:45.759Z,94.62
2022-12-22T08:14:13.817Z,94.30
2022-12-22T08:16:43.268Z,94.61
2022-12-22T08:19:11.568Z,94.24
2022-12-22T08:21:39.595Z,94.38
2022-12-22T08:24:08.840Z,94.67
2022-12-22T08:26:45.011Z,94.26
2022-12-22T08:29:19.264Z,94.55
2022-12-22T08:31:49.110Z,94.76
2022-12-22T08:34:18.334Z,94.57
2022-12-22T08:36:53.087Z,94.52
2022-12-22T08:39:24.776Z,94.51
2022-12-22T08:41:53.376Z,94.67
2022-12-22T08:44:25.905Z,94.49
2022-12-22T08:46:58.130Z,94.50
2022-12-22T08:49:27.777Z,94.24
2022-12-22T08:51:56.236Z,94.49
2022-12-22T08:54:24.913Z,94.64
2022-12-22T08:56:52.994Z,94.50
2022-12-22T08:59:21.186Z,94.61
2022-12-22T09:01:50.731Z,94.67
2022-12-22T09:04:24.334Z,94.30
2022-12-22T09:06:54.038Z,94.13
2022-12-22T09:09:22.151Z,94.54
2022-12-22T09:11:50.219Z,94.53
2022-12-22T09:14:18.891Z,94.36
2022-12-22T09:16:47.094Z,94.61
2022-12-22T09:19:15.341Z,94.79
2022-12-22T09:21:45.099Z,94.21
2022-12-22T09:24:15.010Z,94.48
2022-12-22T09:26:44.072Z,94.32
2022-12-22T09:29:12.197Z,94.48
2022-12-22T09:31:41.648Z,94.36
2022-12-22T09:34:16.761Z,94.14
2022-12-22T09:36:48.600Z,94.45
2022-12-22T09:39:16.992Z,93.85
2022-12-22T09:41:49.493Z,93.72
2022-12-22T09:44:26.608Z,94.03
2022-12-22T09:46:58.722Z,94.07
2022-12-22T09:49:27.991Z,94.48
2022-12-22T09:52:01.302Z,94.09
2022-12-22T09:54:31.176Z,94.30
2022-12-22T09:56:59.752Z,94.66
2022-12-22T09:59:31.185Z,94.49
2022-12-22T10:02:18.440Z,94.23
2022-12-22T10:05:07.466Z,94.31
2022-12-22T10:07:41.035Z,94.27
2022-12-22T10:10:24.875Z,94.20
2022-12-22T10:12:55.526Z,94.30
2022-12-22T10:15:23.841Z,94.20
2022-12-22T10:17:54.111Z,94.04
2022-12-22T10:20:26.639Z,94.24
2022-12-22T10:22:59.738Z,93.78
2022-12-22T10:25:52.509Z,93.99
2022-12-22T10:28:28.207Z,94.19
2022-12-22T10:31:18.869Z,94.55
2022-12-22T10:33:50.685Z,94.33
2022-12-22T10:36:25.204Z,94.09
2022-12-22T10:39:03.385Z,94.42
2022-12-22T10:41:36.549Z,94.18
2022-12-22T10:44:11.979Z,93.82
2022-12-22T10:46:47.264Z,94.58
2022-12-22T10:49:27.777Z,95.20
2022-12-22T10:52:10.973Z,94.26
2022-12-22T10:54:42.679Z,94.62
2022-12-22T10:57:31.346Z,94.71
2022-12-22T11:00:02.117Z,94.42
2022-12-22T11:02:37.720Z,94.72
2022-12-22T11:05:10.208Z,94.24
2022-12-22T11:07:40.320Z,94.35
2022-12-22T11:10:33.236Z,94.43
2022-12-22T11:13:43.499Z,94.13
2022-12-22T11:16:21.811Z,94.36
2022-12-22T11:19:12.141Z,93.95
2022-12-22T11:21:50.766Z,94.03
2022-12-22T11:24:37.110Z,93.63
2022-12-22T11:27:33.269Z,93.81
2022-12-22T11:30:15.311Z,93.91
2022-12-22T11:33:17.011Z,93.60
2022-12-22T11:35:59.731Z,93.99
2022-12-22T11:38:48.637Z,93.71
2022-12-22T11:41:46.280Z,93.70
2022-12-22T11:44:38.366Z,93.48
2022-12-22T11:47:26.280Z,93.34
2022-12-22T11:50:58.995Z,93.53
2022-12-22T11:53:44.750Z,94.04
2022-12-22T11:56:24.569Z,93.51
2022-12-22T11:59:30.352Z,93.77
2022-12-22T12:02:40.144Z,93.85
2022-12-22T12:05:45.163Z,93.85
2022-12-22T12:08:30.584Z,93.77
2022-12-22T12:11:18.347Z,93.58
2022-12-22T12:14:00.239Z,93.91
2022-12-22T12:16:42.295Z,93.98
2022-12-22T12:20:04.183Z,94.03
2022-12-22T12:22:50.663Z,93.83
2022-12-22T12:25:33.721Z,93.78
2022-12-22T12:28:16.793Z,93.70
2022-12-22T12:30:55.223Z,93.88
2022-12-22T12:33:37.994Z,94.11
2022-12-22T12:36:19.009Z,94.29
2022-12-22T12:39:08.720Z,94.05
2022-12-22T12:41:54.375Z,93.81
2022-12-22T12:44:28.977Z,94.07
2022-12-22T12:47:24.213Z,93.98
2022-12-22T12:50:34.562Z,94.21
2022-12-22T12:53:11.721Z,93.92
2022-12-22T12:56:05.909Z,93.92
2022-12-22T12:58:58.051Z,94.34
2022-12-22T13:02:02.146Z,94.39
2022-12-22T13:05:27.778Z,94.28
2022-12-22T13:08:19.515Z,94.12
2022-12-22T13:12:01.262Z,94.00
2022-12-22T13:14:12.505Z,94.32
2022-12-22T13:16:41.006Z,94.33
2022-12-22T13:19:26.446Z,94.83
2022-12-22T13:21:57.944Z,95.13
2022-12-22T13:24:35.414Z,95.11
2022-12-22T13:27:11.245Z,94.36
2022-12-22T13:29:47.587Z,94.76
2022-12-22T13:32:34.593Z,94.52
2022-12-22T13:35:35.604Z,94.88
2022-12-22T13:38:05.506Z,95.12
2022-12-22T13:40:43.618Z,95.12
2022-12-22T13:43:15.998Z,95.47
2022-12-22T13:45:47.965Z,94.95
2022-12-22T13:48:21.796Z,94.66
2022-12-22T13:50:54.292Z,95.07
2022-12-22T13:56:26.517Z,95.54
2022-12-22T13:59:01.664Z,95.34
2022-12-22T14:01:30.598Z,95.26
2022-12-22T14:04:07.607Z,95.29
2022-12-22T14:06:39.441Z,95.22
2022-12-22T14:09:18.080Z,95.28
2022-12-22T14:11:53.165Z,95.51
2022-12-22T14:14:27.049Z,95.11
2022-12-22T14:16:59.517Z,95.03
2022-12-22T14:19:33.059Z,95.28
2022-12-22T14:22:08.361Z,95.38
2022-12-22T14:24:44.280Z,95.44
2022-12-22T14:27:28.796Z,95.18
2022-12-22T14:29:59.929Z,94.69
2022-12-22T14:32:41.386Z,94.67
2022-12-22T14:35:31.192Z,95.19
2022-12-22T14:38:21.691Z,95.06
2022-12-22T14:40:56.526Z,95.21
2022-12-22T14:43:31.497Z,94.96
2022-12-22T14:46:07.626Z,94.80
2022-12-22T14:48:41.143Z,95.14
2022-12-22T14:51:09.557Z,95.38
2022-12-22T14:53:50.637Z,95.27
2022-12-22T14:56:19.060Z,94.92
2022-12-22T14:58:50.575Z,94.72
2022-12-22T15:01:28.185Z,95.13
2022-12-22T15:04:03.195Z,95.00
2022-12-22T15:06:43.742Z,95.29
2022-12-22T15:10:13.179Z,94.99
2022-12-22T15:12:20.129Z,95.08
2022-12-22T15:14:49.945Z,94.96
2022-12-22T15:17:26.960Z,94.88
2022-12-22T15:19:59.642Z,94.81
2022-12-22T15:22:27.758Z,94.73
2022-12-22T15:24:55.729Z,94.77
2022-12-22T15:27:23.648Z,94.85
2022-12-22T15:29:52.919Z,94.58
2022-12-22T15:32:20.916Z,94.86
2022-12-22T15:34:48.960Z,95.08
2022-12-22T15:37:16.917Z,94.77
2022-12-22T15:39:44.905Z,94.84
2022-12-22T15:42:12.919Z,94.89
2022-12-22T15:44:40.971Z,94.71
2022-12-22T15:47:13.611Z,94.77
2022-12-22T15:49:41.792Z,94.33
2022-12-22T15:52:14.716Z,93.83
2022-12-22T15:54:43.085Z,93.98
2022-12-22T15:57:14.708Z,93.90
2022-12-22T15:59:42.733Z,94.25
2022-12-22T16:02:15.001Z,94.23
2022-12-22T16:04:43.133Z,94.62
2022-12-22T16:07:13.064Z,94.40
2022-12-22T16:09:45.111Z,93.74
2022-12-22T16:12:18.791Z,93.60
2022-12-22T16:14:51.268Z,93.89
2022-12-22T16:17:23.175Z,93.58
2022-12-22T16:19:51.386Z,93.79
2022-12-22T16:22:26.908Z,93.77
2022-12-22T16:24:55.019Z,93.68
2022-12-22T16:27:23.769Z,94.03
2022-12-22T16:29:55.211Z,93.93
2022-12-22T16:32:29.822Z,93.80
2022-12-22T16:35:15.166Z,93.64
2022-12-22T16:37:43.622Z,93.61
2022-12-22T16:40:13.083Z,93.59
2022-12-22T16:45:38.011Z,93.89
2022-12-22T16:48:14.884Z,94.02
2022-12-22T16:50:47.897Z,93.99
2022-12-22T16:53:16.571Z,94.03
2022-12-22T16:55:44.802Z,93.88
2022-12-22T16:58:14.361Z,94.06
2022-12-22T17:00:45.813Z,94.57
2022-12-22T17:03:20.466Z,94.21
2022-12-22T17:05:53.885Z,93.76
2022-12-22T17:08:28.307Z,94.19
2022-12-22T17:11:04.785Z,93.85
2022-12-22T17:13:38.881Z,93.87
2022-12-22T17:16:07.296Z,93.85
2022-12-22T17:18:37.730Z,93.83
2022-12-22T17:21:05.950Z,93.58
2022-12-22T17:23:38.513Z,93.59
2022-12-22T17:26:11.477Z,93.84
2022-12-22T17:28:41.107Z,93.61
2022-12-22T17:31:09.050Z,93.63
2022-12-22T17:33:38.573Z,93.70
2022-12-22T17:36:07.943Z,93.69
2022-12-22T17:38:38.514Z,93.61
2022-12-22T17:41:06.867Z,94.03
2022-12-22T17:43:34.885Z,93.68
2022-12-22T17:46:02.949Z,93.61
2022-12-22T17:48:30.983Z,93.58
2022-12-22T17:51:01.686Z,93.90
2022-12-22T17:53:29.820Z,93.88
2022-12-22T17:56:09.090Z,93.69
2022-12-22T17:58:37.283Z,94.13
2022-12-22T18:01:05.627Z,94.48
2022-12-22T18:03:33.859Z,94.41
2022-12-22T18:06:03.376Z,94.81
2022-12-22T18:08:31.796Z,94.39
2022-12-22T18:11:00.204Z,95.21
2022-12-22T18:13:28.203Z,95.14
2022-12-22T18:15:56.320Z,94.86
2022-12-22T18:18:24.501Z,95.35
2022-12-22T18:21:07.550Z,95.13
2022-12-22T18:23:38.446Z,95.68
2022-12-22T18:26:09.614Z,95.00
2022-12-22T18:28:38.359Z,95.05
2022-12-22T18:31:06.682Z,94.74
2022-12-22T18:33:34.724Z,94.76
2022-12-22T18:36:03.408Z,94.51
2022-12-22T18:38:36.110Z,94.32
2022-12-22T18:41:05.590Z,94.50
2022-12-22T18:43:33.681Z,94.84
2022-12-22T18:46:01.847Z,94.96
2022-12-22T18:48:29.844Z,94.64
2022-12-22T18:50:57.872Z,94.51
2022-12-22T18:53:29.999Z,95.03
2022-12-22T18:55:59.188Z,94.83
2022-12-22T18:58:29.492Z,94.75
2022-12-22T19:00:58.047Z,94.76
2022-12-22T19:03:30.060Z,94.87
2022-12-22T19:05:58.643Z,95.69
2022-12-22T19:08:31.205Z,95.19
2022-12-22T19:11:04.688Z,95.47
2022-12-22T19:13:39.191Z,95.40
2022-12-22T19:16:08.590Z,95.27
2022-12-22T19:18:36.610Z,94.82
2022-12-22T19:21:04.880Z,95.15
2022-12-22T19:23:32.951Z,95.27
2022-12-22T19:26:08.851Z,95.31
2022-12-22T19:28:43.606Z,96.01
2022-12-22T19:31:22.843Z,95.25
2022-12-22T19:33:51.174Z,95.77
2022-12-22T19:36:25.435Z,95.25
2022-12-22T19:39:02.736Z,95.69
2022-12-22T19:41:42.853Z,95.40
2022-12-22T19:44:25.881Z,95.50
2022-12-22T19:46:55.756Z,95.30
2022-12-22T19:49:26.989Z,95.38
2022-12-22T19:51:56.421Z,96.06
2022-12-22T19:54:24.740Z,96.09
2022-12-22T19:56:57.092Z,95.88
2022-12-22T19:59:38.527Z,94.79
2022-12-22T20:02:27.287Z,95.09
2022-12-22T20:04:57.863Z,95.50
2022-12-22T20:07:32.729Z,95.58
2022-12-22T20:10:00.784Z,95.81
2022-12-22T20:12:34.866Z,95.37
2022-12-22T20:15:18.786Z,95.78
2022-12-22T20:17:47.222Z,95.80
2022-12-22T20:20:16.382Z,95.40
2022-12-22T20:22:49.107Z,95.29
2022-12-22T20:25:18.692Z,95.13
2022-12-22T20:27:47.060Z,95.37
2022-12-22T20:30:20.884Z,95.73
2022-12-22T20:32:49.466Z,95.56
2022-12-22T20:35:18.498Z,95.10
2022-12-22T20:37:47.011Z,95.42
2022-12-22T20:40:25.239Z,95.49
2022-12-22T20:42:53.641Z,95.23
2022-12-22T20:45:23.366Z,94.81
2022-12-22T20:47:52.293Z,95.32
2022-12-22T20:50:24.795Z,94.84
2022-12-22T20:52:54.280Z,95.11
2022-12-22T20:55:25.806Z,95.67
2022-12-22T20:57:54.649Z,95.50
2022-12-22T21:00:27.476Z,95.20
2022-12-22T21:02:56.437Z,95.57
2022-12-22T21:05:24.633Z,95.32
2022-12-22T21:07:52.580Z,95.19
2022-12-22T21:10:26.262Z,95.20
2022-12-22T21:12:54.701Z,95.52
2022-12-22T21:15:28.013Z,95.39
2022-12-22T21:17:58.740Z,94.78
2022-12-22T21:20:30.397Z,95.05
2022-12-22T21:22:58.579Z,95.03
2022-12-22T21:25:27.368Z,95.24
2022-12-22T21:27:55.605Z,94.74
2022-12-22T21:30:28.870Z,94.64
2022-12-22T21:32:57.879Z,94.97
2022-12-22T21:35:32.365Z,95.26
2022-12-22T21:38:00.654Z,94.41
2022-12-22T21:40:32.448Z,94.33
2022-12-22T21:43:00.709Z,94.19
2022-12-22T21:45:34.784Z,94.38
2022-12-22T21:48:06.835Z,93.62
2022-12-22T21:50:36.787Z,94.00
2022-12-22T21:53:04.835Z,94.12
2022-12-22T21:55:36.153Z,94.41
2022-12-22T21:58:07.086Z,94.16
2022-12-22T22:00:37.550Z,93.64
2022-12-22T22:03:11.150Z,94.01
2022-12-22T22:05:43.089Z,93.83
2022-12-22T22:08:13.251Z,93.26
2022-12-22T22:10:44.159Z,92.87
2022-12-22T22:13:16.806Z,92.76
2022-12-22T22:15:46.374Z,93.13
2022-12-22T22:18:17.352Z,92.27
2022-12-22T22:20:46.864Z,92.17
2022-12-22T22:23:15.649Z,92.88
2022-12-22T22:25:44.118Z,92.50
2022-12-22T22:28:12.372Z,92.99
2022-12-22T22:30:42.868Z,92.63
2022-12-22T22:33:12.932Z,92.57
2022-12-22T22:35:41.993Z,93.33
2022-12-22T22:38:12.910Z,93.41
2022-12-22T22:40:44.052Z,93.40
2022-12-22T22:43:12.671Z,93.85
2022-12-22T22:45:42.290Z,93.16
2022-12-22T22:48:18.725Z,93.74
2022-12-22T22:50:46.841Z,93.84
2022-12-22T22:53:15.110Z,94.22
2022-12-22T22:55:43.569Z,93.89
2022-12-22T22:58:11.800Z,94.54
2022-12-22T23:00:40.557Z,94.60
2022-12-22T23:03:08.625Z,95.01
2022-12-22T23:05:38.184Z,94.26
2022-12-22T23:08:06.464Z,95.13
2022-12-22T23:10:41.118Z,94.92
2022-12-22T23:13:09.692Z,93.96
2022-12-22T23:15:37.710Z,94.61
2022-12-22T23:18:05.931Z,94.25
2022-12-22T23:20:33.905Z,93.67
2022-12-22T23:23:03.237Z,93.39
2022-12-22T23:25:31.281Z,94.03
2022-12-22T23:27:59.248Z,94.26
2022-12-22T23:30:27.231Z,94.10
2022-12-22T23:32:56.173Z,93.51
2022-12-22T23:35:24.142Z,93.69
2022-12-22T23:37:52.044Z,93.65
2022-12-22T23:43:12.711Z,93.15
2022-12-22T23:45:41.666Z,93.12
2022-12-22T23:48:10.982Z,93.69
2022-12-22T23:50:39.018Z,93.85
2022-12-22T23:53:07.021Z,94.50
2022-12-22T23:55:36.368Z,94.54
